sensor_id;sensor_type;location;lat;lon;timestamp;P1;durP1;ratioP1;P2;durP2;ratioP2
40022;SDS011;25713;-35.352;149.036;2022-08-21T00:02:25;2.25;;;0.77;;
40022;SDS011;25713;-35.352;149.036;2022-08-21T00:04:55;0.57;;;0.37;;
40022;SDS011;25713;-35.352;149.036;2022-08-21T00:07:24;2.28;;;0.70;;
40022;SDS011;25713;-35.352;149.036;2022-08-21T00:09:54;0.90;;;0.60;;
40022;SDS011;25713;-35.352;149.036;2022-08-21T00:12:25;1.00;;;0.57;;
40022;SDS011;25713;-35.352;149.036;2022-08-21T00:14:55;0.65;;;0.60;;
40022;SDS011;25713;-35.352;149.036;2022-08-21T00:17:25;2.47;;;0.70;;
40022;SDS011;25713;-35.352;149.036;2022-08-21T00:19:54;0.80;;;0.40;;
40022;SDS011;25713;-35.352;149.036;2022-08-21T00:22:23;1.10;;;0.60;;
40022;SDS011;25713;-35.352;149.036;2022-08-21T00:24:53;0.95;;;0.50;;
40022;SDS011;25713;-35.352;149.036;2022-08-21T00:27:24;1.55;;;0.50;;
40022;SDS011;25713;-35.352;149.036;2022-08-21T00:29:54;1.30;;;0.50;;
40022;SDS011;25713;-35.352;149.036;2022-08-21T00:32:24;0.73;;;0.50;;
40022;SDS011;25713;-35.352;149.036;2022-08-21T00:34:55;1.35;;;0.50;;
40022;SDS011;25713;-35.352;149.036;2022-08-21T00:37:25;1.08;;;0.52;;
40022;SDS011;25713;-35.352;149.036;2022-08-21T00:39:55;0.75;;;0.40;;
40022;SDS011;25713;-35.352;149.036;2022-08-21T00:42:28;1.55;;;0.40;;
40022;SDS011;25713;-35.352;149.036;2022-08-21T00:44:59;2.25;;;0.50;;
40022;SDS011;25713;-35.352;149.036;2022-08-21T00:47:29;0.68;;;0.50;;
40022;SDS011;25713;-35.352;149.036;2022-08-21T00:49:59;0.50;;;0.40;;
40022;SDS011;25713;-35.352;149.036;2022-08-21T00:52:30;1.50;;;0.50;;
40022;SDS011;25713;-35.352;149.036;2022-08-21T00:55:01;2.45;;;0.65;;
40022;SDS011;25713;-35.352;149.036;2022-08-21T00:57:36;1.58;;;0.50;;
40022;SDS011;25713;-35.352;149.036;2022-08-21T01:00:10;1.73;;;0.75;;
40022;SDS011;25713;-35.352;149.036;2022-08-21T01:05:11;0.60;;;0.60;;
40022;SDS011;25713;-35.352;149.036;2022-08-21T01:07:41;1.10;;;0.50;;
40022;SDS011;25713;-35.352;149.036;2022-08-21T01:10:12;2.05;;;0.55;;
40022;SDS011;25713;-35.352;149.036;2022-08-21T01:12:44;1.10;;;0.60;;
40022;SDS011;25713;-35.352;149.036;2022-08-21T01:15:15;1.08;;;0.40;;
40022;SDS011;25713;-35.352;149.036;2022-08-21T01:17:47;4.50;;;0.60;;
40022;SDS011;25713;-35.352;149.036;2022-08-21T01:20:17;0.63;;;0.50;;
40022;SDS011;25713;-35.352;149.036;2022-08-21T01:22:51;1.63;;;0.60;;
40022;SDS011;25713;-35.352;149.036;2022-08-21T01:25:22;1.20;;;0.70;;
40022;SDS011;25713;-35.352;149.036;2022-08-21T01:27:51;1.05;;;0.50;;
40022;SDS011;25713;-35.352;149.036;2022-08-21T01:30:22;1.13;;;0.50;;
40022;SDS011;25713;-35.352;149.036;2022-08-21T01:32:53;1.08;;;0.52;;
40022;SDS011;25713;-35.352;149.036;2022-08-21T01:35:23;0.70;;;0.55;;
40022;SDS011;25713;-35.352;149.036;2022-08-21T01:37:55;1.58;;;0.60;;
40022;SDS011;25713;-35.352;149.036;2022-08-21T01:40:25;2.03;;;0.60;;
40022;SDS011;25713;-35.352;149.036;2022-08-21T01:42:55;0.82;;;0.60;;
40022;SDS011;25713;-35.352;149.036;2022-08-21T01:45:29;2.90;;;0.60;;
40022;SDS011;25713;-35.352;149.036;2022-08-21T01:47:58;2.03;;;0.60;;
40022;SDS011;25713;-35.352;149.036;2022-08-21T01:50:29;2.47;;;0.50;;
40022;SDS011;25713;-35.352;149.036;2022-08-21T01:53:01;0.82;;;0.50;;
40022;SDS011;25713;-35.352;149.036;2022-08-21T01:58:00;2.20;;;0.60;;
40022;SDS011;25713;-35.352;149.036;2022-08-21T02:00:30;7.28;;;0.90;;
40022;SDS011;25713;-35.352;149.036;2022-08-21T02:03:00;0.55;;;0.50;;
40022;SDS011;25713;-35.352;149.036;2022-08-21T02:05:30;2.35;;;0.50;;
40022;SDS011;25713;-35.352;149.036;2022-08-21T02:08:01;0.88;;;0.40;;
40022;SDS011;25713;-35.352;149.036;2022-08-21T02:10:33;0.52;;;0.52;;
40022;SDS011;25713;-35.352;149.036;2022-08-21T02:13:04;0.85;;;0.50;;
40022;SDS011;25713;-35.352;149.036;2022-08-21T02:15:34;1.45;;;0.40;;
40022;SDS011;25713;-35.352;149.036;2022-08-21T02:18:04;0.75;;;0.50;;
40022;SDS011;25713;-35.352;149.036;2022-08-21T02:20:36;0.40;;;0.38;;
40022;SDS011;25713;-35.352;149.036;2022-08-21T02:23:10;1.17;;;0.63;;
40022;SDS011;25713;-35.352;149.036;2022-08-21T02:25:41;1.52;;;0.50;;
40022;SDS011;25713;-35.352;149.036;2022-08-21T02:28:12;0.45;;;0.43;;
40022;SDS011;25713;-35.352;149.036;2022-08-21T02:30:43;1.30;;;0.40;;
40022;SDS011;25713;-35.352;149.036;2022-08-21T02:33:15;0.40;;;0.40;;
40022;SDS011;25713;-35.352;149.036;2022-08-21T02:35:45;0.40;;;0.40;;
40022;SDS011;25713;-35.352;149.036;2022-08-21T02:38:19;19.88;;;1.80;;
40022;SDS011;25713;-35.352;149.036;2022-08-21T02:40:51;0.52;;;0.30;;
40022;SDS011;25713;-35.352;149.036;2022-08-21T02:43:22;0.30;;;0.30;;
40022;SDS011;25713;-35.352;149.036;2022-08-21T02:45:54;0.45;;;0.38;;
40022;SDS011;25713;-35.352;149.036;2022-08-21T02:48:25;2.45;;;0.47;;
40022;SDS011;25713;-35.352;149.036;2022-08-21T02:50:58;1.00;;;0.22;;
40022;SDS011;25713;-35.352;149.036;2022-08-21T02:53:31;0.30;;;0.30;;
40022;SDS011;25713;-35.352;149.036;2022-08-21T02:56:03;0.20;;;0.20;;
40022;SDS011;25713;-35.352;149.036;2022-08-21T02:58:35;0.10;;;0.10;;
40022;SDS011;25713;-35.352;149.036;2022-08-21T03:03:36;0.13;;;0.13;;
40022;SDS011;25713;-35.352;149.036;2022-08-21T03:06:08;0.32;;;0.10;;
40022;SDS011;25713;-35.352;149.036;2022-08-21T03:08:40;0.88;;;0.20;;
40022;SDS011;25713;-35.352;149.036;2022-08-21T03:11:11;0.47;;;0.20;;
40022;SDS011;25713;-35.352;149.036;2022-08-21T03:13:42;0.63;;;0.28;;
40022;SDS011;25713;-35.352;149.036;2022-08-21T03:16:12;0.90;;;0.20;;
40022;SDS011;25713;-35.352;149.036;2022-08-21T03:18:41;0.20;;;0.20;;
40022;SDS011;25713;-35.352;149.036;2022-08-21T03:21:11;0.28;;;0.20;;
40022;SDS011;25713;-35.352;149.036;2022-08-21T03:23:44;0.20;;;0.20;;
40022;SDS011;25713;-35.352;149.036;2022-08-21T03:26:14;0.22;;;0.20;;
40022;SDS011;25713;-35.352;149.036;2022-08-21T03:28:44;0.30;;;0.20;;
40022;SDS011;25713;-35.352;149.036;2022-08-21T03:31:15;0.52;;;0.20;;
40022;SDS011;25713;-35.352;149.036;2022-08-21T03:33:45;0.38;;;0.17;;
40022;SDS011;25713;-35.352;149.036;2022-08-21T03:36:15;0.65;;;0.22;;
40022;SDS011;25713;-35.352;149.036;2022-08-21T03:38:47;1.15;;;0.20;;
40022;SDS011;25713;-35.352;149.036;2022-08-21T03:41:17;0.20;;;0.10;;
40022;SDS011;25713;-35.352;149.036;2022-08-21T03:43:47;0.60;;;0.20;;
40022;SDS011;25713;-35.352;149.036;2022-08-21T03:46:17;0.20;;;0.17;;
40022;SDS011;25713;-35.352;149.036;2022-08-21T03:48:47;0.20;;;0.20;;
40022;SDS011;25713;-35.352;149.036;2022-08-21T03:51:17;0.10;;;0.10;;
40022;SDS011;25713;-35.352;149.036;2022-08-21T03:53:49;0.40;;;0.20;;
40022;SDS011;25713;-35.352;149.036;2022-08-21T03:56:19;0.45;;;0.20;;
40022;SDS011;25713;-35.352;149.036;2022-08-21T03:58:49;0.13;;;0.10;;
40022;SDS011;25713;-35.352;149.036;2022-08-21T04:01:19;0.75;;;0.30;;
40022;SDS011;25713;-35.352;149.036;2022-08-21T04:03:49;1.73;;;0.20;;
40022;SDS011;25713;-35.352;149.036;2022-08-21T04:06:19;0.10;;;0.10;;
40022;SDS011;25713;-35.352;149.036;2022-08-21T04:08:52;0.52;;;0.20;;
40022;SDS011;25713;-35.352;149.036;2022-08-21T04:11:22;0.10;;;0.10;;
40022;SDS011;25713;-35.352;149.036;2022-08-21T04:13:52;0.35;;;0.20;;
40022;SDS011;25713;-35.352;149.036;2022-08-21T04:16:22;0.20;;;0.20;;
40022;SDS011;25713;-35.352;149.036;2022-08-21T04:18:52;0.17;;;0.17;;
40022;SDS011;25713;-35.352;149.036;2022-08-21T04:21:21;0.38;;;0.20;;
40022;SDS011;25713;-35.352;149.036;2022-08-21T04:23:56;0.10;;;0.10;;
40022;SDS011;25713;-35.352;149.036;2022-08-21T04:26:26;0.10;;;0.10;;
40022;SDS011;25713;-35.352;149.036;2022-08-21T04:28:56;1.42;;;0.20;;
40022;SDS011;25713;-35.352;149.036;2022-08-21T04:31:27;0.30;;;0.30;;
40022;SDS011;25713;-35.352;149.036;2022-08-21T04:33:57;0.30;;;0.30;;
40022;SDS011;25713;-35.352;149.036;2022-08-21T04:36:27;0.82;;;0.30;;
40022;SDS011;25713;-35.352;149.036;2022-08-21T04:38:59;0.30;;;0.30;;
40022;SDS011;25713;-35.352;149.036;2022-08-21T04:41:29;0.70;;;0.30;;
40022;SDS011;25713;-35.352;149.036;2022-08-21T04:43:59;0.68;;;0.22;;
40022;SDS011;25713;-35.352;149.036;2022-08-21T04:46:29;0.20;;;0.20;;
40022;SDS011;25713;-35.352;149.036;2022-08-21T04:48:59;0.20;;;0.20;;
40022;SDS011;25713;-35.352;149.036;2022-08-21T04:51:29;0.20;;;0.20;;
40022;SDS011;25713;-35.352;149.036;2022-08-21T04:54:06;0.50;;;0.22;;
40022;SDS011;25713;-35.352;149.036;2022-08-21T04:56:39;0.38;;;0.30;;
40022;SDS011;25713;-35.352;149.036;2022-08-21T04:59:13;0.15;;;0.15;;
40022;SDS011;25713;-35.352;149.036;2022-08-21T05:04:14;0.20;;;0.20;;
40022;SDS011;25713;-35.352;149.036;2022-08-21T05:06:46;0.20;;;0.20;;
40022;SDS011;25713;-35.352;149.036;2022-08-21T05:09:19;0.90;;;0.53;;
40022;SDS011;25713;-35.352;149.036;2022-08-21T05:11:50;0.85;;;0.20;;
40022;SDS011;25713;-35.352;149.036;2022-08-21T05:14:20;0.20;;;0.20;;
40022;SDS011;25713;-35.352;149.036;2022-08-21T05:16:50;0.20;;;0.20;;
40022;SDS011;25713;-35.352;149.036;2022-08-21T05:19:20;0.50;;;0.30;;
40022;SDS011;25713;-35.352;149.036;2022-08-21T05:21:50;0.20;;;0.20;;
40022;SDS011;25713;-35.352;149.036;2022-08-21T05:24:22;0.50;;;0.28;;
40022;SDS011;25713;-35.352;149.036;2022-08-21T05:26:52;0.20;;;0.20;;
40022;SDS011;25713;-35.352;149.036;2022-08-21T05:29:22;0.20;;;0.20;;
40022;SDS011;25713;-35.352;149.036;2022-08-21T05:31:52;0.30;;;0.30;;
40022;SDS011;25713;-35.352;149.036;2022-08-21T05:34:22;0.47;;;0.35;;
40022;SDS011;25713;-35.352;149.036;2022-08-21T05:36:53;0.20;;;0.20;;
40022;SDS011;25713;-35.352;149.036;2022-08-21T05:39:25;0.20;;;0.20;;
40022;SDS011;25713;-35.352;149.036;2022-08-21T05:41:55;0.25;;;0.20;;
40022;SDS011;25713;-35.352;149.036;2022-08-21T05:44:25;0.30;;;0.30;;
40022;SDS011;25713;-35.352;149.036;2022-08-21T05:46:55;0.20;;;0.20;;
40022;SDS011;25713;-35.352;149.036;2022-08-21T05:49:30;0.40;;;0.30;;
40022;SDS011;25713;-35.352;149.036;2022-08-21T05:52:00;0.15;;;0.13;;
40022;SDS011;25713;-35.352;149.036;2022-08-21T05:54:34;0.50;;;0.30;;
40022;SDS011;25713;-35.352;149.036;2022-08-21T05:57:06;0.45;;;0.43;;
40022;SDS011;25713;-35.352;149.036;2022-08-21T05:59:36;0.10;;;0.10;;
40022;SDS011;25713;-35.352;149.036;2022-08-21T06:02:06;0.90;;;0.40;;
40022;SDS011;25713;-35.352;149.036;2022-08-21T06:04:36;3.30;;;0.40;;
40022;SDS011;25713;-35.352;149.036;2022-08-21T06:07:06;0.50;;;0.30;;
40022;SDS011;25713;-35.352;149.036;2022-08-21T06:09:38;0.77;;;0.30;;
40022;SDS011;25713;-35.352;149.036;2022-08-21T06:12:09;0.40;;;0.40;;
40022;SDS011;25713;-35.352;149.036;2022-08-21T06:14:40;0.80;;;0.40;;
40022;SDS011;25713;-35.352;149.036;2022-08-21T06:17:11;0.73;;;0.30;;
40022;SDS011;25713;-35.352;149.036;2022-08-21T06:19:41;0.32;;;0.32;;
40022;SDS011;25713;-35.352;149.036;2022-08-21T06:22:11;0.52;;;0.35;;
40022;SDS011;25713;-35.352;149.036;2022-08-21T06:24:43;0.30;;;0.30;;
40022;SDS011;25713;-35.352;149.036;2022-08-21T06:27:13;1.75;;;0.35;;
40022;SDS011;25713;-35.352;149.036;2022-08-21T06:29:43;0.52;;;0.30;;
40022;SDS011;25713;-35.352;149.036;2022-08-21T06:32:12;0.63;;;0.30;;
40022;SDS011;25713;-35.352;149.036;2022-08-21T06:34:42;1.25;;;0.32;;
40022;SDS011;25713;-35.352;149.036;2022-08-21T06:37:12;1.63;;;0.60;;
40022;SDS011;25713;-35.352;149.036;2022-08-21T06:39:44;0.52;;;0.40;;
40022;SDS011;25713;-35.352;149.036;2022-08-21T06:42:15;0.20;;;0.20;;
40022;SDS011;25713;-35.352;149.036;2022-08-21T06:44:46;0.85;;;0.40;;
40022;SDS011;25713;-35.352;149.036;2022-08-21T06:47:16;0.70;;;0.30;;
40022;SDS011;25713;-35.352;149.036;2022-08-21T06:49:45;0.73;;;0.40;;
40022;SDS011;25713;-35.352;149.036;2022-08-21T06:52:15;0.20;;;0.20;;
40022;SDS011;25713;-35.352;149.036;2022-08-21T06:54:47;0.30;;;0.30;;
40022;SDS011;25713;-35.352;149.036;2022-08-21T06:57:17;0.68;;;0.50;;
40022;SDS011;25713;-35.352;149.036;2022-08-21T06:59:47;0.95;;;0.40;;
40022;SDS011;25713;-35.352;149.036;2022-08-21T07:02:18;1.83;;;0.40;;
40022;SDS011;25713;-35.352;149.036;2022-08-21T07:04:48;0.30;;;0.30;;
40022;SDS011;25713;-35.352;149.036;2022-08-21T07:07:17;0.32;;;0.30;;
40022;SDS011;25713;-35.352;149.036;2022-08-21T07:09:50;0.40;;;0.35;;
40022;SDS011;25713;-35.352;149.036;2022-08-21T07:12:20;0.47;;;0.30;;
40022;SDS011;25713;-35.352;149.036;2022-08-21T07:14:50;0.60;;;0.30;;
40022;SDS011;25713;-35.352;149.036;2022-08-21T07:17:20;0.35;;;0.35;;
40022;SDS011;25713;-35.352;149.036;2022-08-21T07:19:50;0.50;;;0.35;;
40022;SDS011;25713;-35.352;149.036;2022-08-21T07:22:19;0.57;;;0.30;;
40022;SDS011;25713;-35.352;149.036;2022-08-21T07:24:51;0.40;;;0.40;;
40022;SDS011;25713;-35.352;149.036;2022-08-21T07:27:21;0.35;;;0.30;;
40022;SDS011;25713;-35.352;149.036;2022-08-21T07:29:51;1.23;;;0.47;;
40022;SDS011;25713;-35.352;149.036;2022-08-21T07:32:21;0.40;;;0.40;;
40022;SDS011;25713;-35.352;149.036;2022-08-21T07:34:51;0.88;;;0.40;;
40022;SDS011;25713;-35.352;149.036;2022-08-21T07:37:20;1.83;;;0.40;;
40022;SDS011;25713;-35.352;149.036;2022-08-21T07:39:52;0.80;;;0.40;;
40022;SDS011;25713;-35.352;149.036;2022-08-21T07:42:22;0.40;;;0.40;;
40022;SDS011;25713;-35.352;149.036;2022-08-21T07:44:54;2.10;;;0.43;;
40022;SDS011;25713;-35.352;149.036;2022-08-21T07:47:24;0.90;;;0.40;;
40022;SDS011;25713;-35.352;149.036;2022-08-21T07:49:54;1.15;;;0.50;;
40022;SDS011;25713;-35.352;149.036;2022-08-21T07:52:24;1.17;;;0.40;;
40022;SDS011;25713;-35.352;149.036;2022-08-21T07:54:56;0.20;;;0.20;;
40022;SDS011;25713;-35.352;149.036;2022-08-21T07:57:26;0.88;;;0.40;;
40022;SDS011;25713;-35.352;149.036;2022-08-21T07:59:56;0.68;;;0.30;;
40022;SDS011;25713;-35.352;149.036;2022-08-21T08:02:26;0.80;;;0.38;;
40022;SDS011;25713;-35.352;149.036;2022-08-21T08:04:58;0.60;;;0.40;;
40022;SDS011;25713;-35.352;149.036;2022-08-21T08:07:29;0.55;;;0.32;;
40022;SDS011;25713;-35.352;149.036;2022-08-21T08:10:03;1.40;;;0.30;;
40022;SDS011;25713;-35.352;149.036;2022-08-21T08:12:35;0.40;;;0.35;;
40022;SDS011;25713;-35.352;149.036;2022-08-21T08:15:07;2.20;;;0.43;;
40022;SDS011;25713;-35.352;149.036;2022-08-21T08:17:38;0.55;;;0.30;;
40022;SDS011;25713;-35.352;149.036;2022-08-21T08:20:08;1.00;;;0.43;;
40022;SDS011;25713;-35.352;149.036;2022-08-21T08:22:39;0.47;;;0.40;;
40022;SDS011;25713;-35.352;149.036;2022-08-21T08:25:11;0.52;;;0.30;;
40022;SDS011;25713;-35.352;149.036;2022-08-21T08:27:42;0.95;;;0.40;;
40022;SDS011;25713;-35.352;149.036;2022-08-21T08:30:13;0.43;;;0.30;;
40022;SDS011;25713;-35.352;149.036;2022-08-21T08:32:44;0.88;;;0.30;;
40022;SDS011;25713;-35.352;149.036;2022-08-21T08:35:15;1.15;;;0.40;;
40022;SDS011;25713;-35.352;149.036;2022-08-21T08:37:45;1.38;;;0.50;;
40022;SDS011;25713;-35.352;149.036;2022-08-21T08:40:20;1.05;;;0.60;;
40022;SDS011;25713;-35.352;149.036;2022-08-21T08:42:56;0.60;;;0.40;;
40022;SDS011;25713;-35.352;149.036;2022-08-21T08:45:27;2.13;;;0.80;;
40022;SDS011;25713;-35.352;149.036;2022-08-21T08:48:03;1.40;;;0.90;;
40022;SDS011;25713;-35.352;149.036;2022-08-21T08:50:38;1.52;;;1.00;;
40022;SDS011;25713;-35.352;149.036;2022-08-21T08:53:12;2.08;;;1.02;;
40022;SDS011;25713;-35.352;149.036;2022-08-21T08:55:50;1.17;;;0.98;;
40022;SDS011;25713;-35.352;149.036;2022-08-21T08:58:22;2.05;;;1.20;;
40022;SDS011;25713;-35.352;149.036;2022-08-21T09:00:56;2.13;;;1.30;;
40022;SDS011;25713;-35.352;149.036;2022-08-21T09:03:28;2.50;;;1.30;;
40022;SDS011;25713;-35.352;149.036;2022-08-21T09:05:59;2.33;;;1.00;;
40022;SDS011;25713;-35.352;149.036;2022-08-21T09:08:40;2.28;;;1.10;;
40022;SDS011;25713;-35.352;149.036;2022-08-21T09:11:22;1.60;;;1.20;;
40022;SDS011;25713;-35.352;149.036;2022-08-21T09:14:00;1.80;;;1.20;;
40022;SDS011;25713;-35.352;149.036;2022-08-21T09:16:45;2.03;;;1.15;;
40022;SDS011;25713;-35.352;149.036;2022-08-21T09:19:28;1.77;;;1.00;;
40022;SDS011;25713;-35.352;149.036;2022-08-21T09:22:07;2.10;;;0.90;;
40022;SDS011;25713;-35.352;149.036;2022-08-21T09:24:50;0.95;;;0.82;;
40022;SDS011;25713;-35.352;149.036;2022-08-21T09:27:29;0.90;;;0.80;;
40022;SDS011;25713;-35.352;149.036;2022-08-21T09:30:03;0.57;;;0.57;;
40022;SDS011;25713;-35.352;149.036;2022-08-21T09:32:34;0.80;;;0.70;;
40022;SDS011;25713;-35.352;149.036;2022-08-21T09:35:07;1.95;;;0.88;;
40022;SDS011;25713;-35.352;149.036;2022-08-21T09:37:46;0.65;;;0.65;;
40022;SDS011;25713;-35.352;149.036;2022-08-21T09:40:26;1.00;;;0.70;;
40022;SDS011;25713;-35.352;149.036;2022-08-21T09:43:04;0.88;;;0.70;;
40022;SDS011;25713;-35.352;149.036;2022-08-21T09:45:43;1.33;;;0.80;;
40022;SDS011;25713;-35.352;149.036;2022-08-21T09:48:15;1.38;;;0.80;;
40022;SDS011;25713;-35.352;149.036;2022-08-21T09:50:46;2.58;;;0.80;;
40022;SDS011;25713;-35.352;149.036;2022-08-21T09:53:18;2.05;;;0.63;;
40022;SDS011;25713;-35.352;149.036;2022-08-21T09:55:50;1.00;;;0.60;;
40022;SDS011;25713;-35.352;149.036;2022-08-21T09:58:30;0.93;;;0.50;;
40022;SDS011;25713;-35.352;149.036;2022-08-21T10:01:03;1.20;;;0.60;;
40022;SDS011;25713;-35.352;149.036;2022-08-21T10:03:34;0.57;;;0.57;;
40022;SDS011;25713;-35.352;149.036;2022-08-21T10:06:04;2.47;;;0.47;;
40022;SDS011;25713;-35.352;149.036;2022-08-21T10:08:37;0.90;;;0.52;;
40022;SDS011;25713;-35.352;149.036;2022-08-21T10:13:43;1.00;;;0.60;;
40022;SDS011;25713;-35.352;149.036;2022-08-21T10:16:25;0.70;;;0.45;;
40022;SDS011;25713;-35.352;149.036;2022-08-21T10:19:07;0.93;;;0.50;;
40022;SDS011;25713;-35.352;149.036;2022-08-21T10:21:48;0.60;;;0.60;;
40022;SDS011;25713;-35.352;149.036;2022-08-21T10:24:28;1.05;;;0.60;;
40022;SDS011;25713;-35.352;149.036;2022-08-21T10:27:06;0.70;;;0.50;;
40022;SDS011;25713;-35.352;149.036;2022-08-21T10:29:51;0.80;;;0.50;;
40022;SDS011;25713;-35.352;149.036;2022-08-21T10:32:27;1.15;;;0.60;;
40022;SDS011;25713;-35.352;149.036;2022-08-21T10:35:07;0.82;;;0.52;;
40022;SDS011;25713;-35.352;149.036;2022-08-21T10:37:43;1.85;;;0.63;;
40022;SDS011;25713;-35.352;149.036;2022-08-21T10:40:24;0.70;;;0.50;;
40022;SDS011;25713;-35.352;149.036;2022-08-21T10:43:02;0.70;;;0.43;;
40022;SDS011;25713;-35.352;149.036;2022-08-21T10:45:47;0.68;;;0.60;;
40022;SDS011;25713;-35.352;149.036;2022-08-21T10:48:25;0.60;;;0.50;;
40022;SDS011;25713;-35.352;149.036;2022-08-21T10:51:02;1.75;;;0.52;;
40022;SDS011;25713;-35.352;149.036;2022-08-21T10:53:39;1.23;;;0.60;;
40022;SDS011;25713;-35.352;149.036;2022-08-21T10:56:18;0.45;;;0.40;;
40022;SDS011;25713;-35.352;149.036;2022-08-21T10:59:01;0.77;;;0.60;;
40022;SDS011;25713;-35.352;149.036;2022-08-21T11:01:46;1.17;;;0.50;;
40022;SDS011;25713;-35.352;149.036;2022-08-21T11:04:23;1.63;;;0.63;;
40022;SDS011;25713;-35.352;149.036;2022-08-21T11:06:58;1.42;;;0.90;;
40022;SDS011;25713;-35.352;149.036;2022-08-21T11:09:31;0.63;;;0.60;;
40022;SDS011;25713;-35.352;149.036;2022-08-21T11:12:02;2.17;;;0.60;;
40022;SDS011;25713;-35.352;149.036;2022-08-21T11:14:41;0.98;;;0.40;;
40022;SDS011;25713;-35.352;149.036;2022-08-21T11:17:22;1.80;;;0.60;;
40022;SDS011;25713;-35.352;149.036;2022-08-21T11:19:59;0.40;;;0.40;;
40022;SDS011;25713;-35.352;149.036;2022-08-21T11:22:33;0.40;;;0.35;;
40022;SDS011;25713;-35.352;149.036;2022-08-21T11:25:12;1.15;;;0.47;;
40022;SDS011;25713;-35.352;149.036;2022-08-21T11:27:45;0.68;;;0.40;;
40022;SDS011;25713;-35.352;149.036;2022-08-21T11:30:17;0.32;;;0.25;;
40022;SDS011;25713;-35.352;149.036;2022-08-21T11:33:00;0.77;;;0.40;;
40022;SDS011;25713;-35.352;149.036;2022-08-21T11:35:39;0.60;;;0.40;;
40022;SDS011;25713;-35.352;149.036;2022-08-21T11:38:19;0.88;;;0.32;;
40022;SDS011;25713;-35.352;149.036;2022-08-21T11:41:01;1.55;;;0.50;;
40022;SDS011;25713;-35.352;149.036;2022-08-21T11:43:40;0.75;;;0.35;;
40022;SDS011;25713;-35.352;149.036;2022-08-21T11:46:16;1.35;;;0.45;;
40022;SDS011;25713;-35.352;149.036;2022-08-21T11:48:57;1.45;;;0.57;;
40022;SDS011;25713;-35.352;149.036;2022-08-21T11:54:18;2.38;;;0.32;;
40022;SDS011;25713;-35.352;149.036;2022-08-21T11:56:55;1.35;;;0.63;;
40022;SDS011;25713;-35.352;149.036;2022-08-21T11:59:30;0.50;;;0.32;;
40022;SDS011;25713;-35.352;149.036;2022-08-21T12:02:06;1.17;;;0.45;;
40022;SDS011;25713;-35.352;149.036;2022-08-21T12:04:44;1.00;;;0.60;;
40022;SDS011;25713;-35.352;149.036;2022-08-21T12:07:17;0.30;;;0.25;;
40022;SDS011;25713;-35.352;149.036;2022-08-21T12:09:57;0.30;;;0.30;;
40022;SDS011;25713;-35.352;149.036;2022-08-21T12:12:28;0.40;;;0.40;;
40022;SDS011;25713;-35.352;149.036;2022-08-21T12:15:06;0.30;;;0.30;;
40022;SDS011;25713;-35.352;149.036;2022-08-21T12:17:55;0.60;;;0.40;;
40022;SDS011;25713;-35.352;149.036;2022-08-21T12:20:38;0.40;;;0.30;;
40022;SDS011;25713;-35.352;149.036;2022-08-21T12:23:16;1.27;;;0.30;;
40022;SDS011;25713;-35.352;149.036;2022-08-21T12:26:03;0.50;;;0.30;;
40022;SDS011;25713;-35.352;149.036;2022-08-21T12:28:47;1.30;;;0.30;;
40022;SDS011;25713;-35.352;149.036;2022-08-21T12:31:21;0.40;;;0.30;;
40022;SDS011;25713;-35.352;149.036;2022-08-21T12:33:55;0.45;;;0.30;;
40022;SDS011;25713;-35.352;149.036;2022-08-21T12:36:30;0.30;;;0.30;;
40022;SDS011;25713;-35.352;149.036;2022-08-21T12:39:12;1.95;;;0.47;;
40022;SDS011;25713;-35.352;149.036;2022-08-21T12:41:45;0.98;;;0.50;;
40022;SDS011;25713;-35.352;149.036;2022-08-21T12:44:17;0.20;;;0.20;;
40022;SDS011;25713;-35.352;149.036;2022-08-21T12:46:55;0.50;;;0.50;;
40022;SDS011;25713;-35.352;149.036;2022-08-21T12:49:28;0.70;;;0.50;;
40022;SDS011;25713;-35.352;149.036;2022-08-21T12:52:05;0.90;;;0.50;;
40022;SDS011;25713;-35.352;149.036;2022-08-21T12:54:41;1.92;;;0.60;;
40022;SDS011;25713;-35.352;149.036;2022-08-21T12:57:17;1.30;;;0.68;;
40022;SDS011;25713;-35.352;149.036;2022-08-21T12:59:53;1.35;;;0.45;;
40022;SDS011;25713;-35.352;149.036;2022-08-21T13:02:24;1.40;;;0.45;;
40022;SDS011;25713;-35.352;149.036;2022-08-21T13:04:57;1.38;;;0.68;;
40022;SDS011;25713;-35.352;149.036;2022-08-21T13:07:34;0.55;;;0.47;;
40022;SDS011;25713;-35.352;149.036;2022-08-21T13:10:06;1.10;;;0.60;;
40022;SDS011;25713;-35.352;149.036;2022-08-21T13:12:44;1.27;;;0.43;;
40022;SDS011;25713;-35.352;149.036;2022-08-21T13:15:14;0.57;;;0.40;;
40022;SDS011;25713;-35.352;149.036;2022-08-21T13:17:50;0.63;;;0.40;;
40022;SDS011;25713;-35.352;149.036;2022-08-21T13:20:22;0.65;;;0.40;;
40022;SDS011;25713;-35.352;149.036;2022-08-21T13:22:55;1.10;;;0.50;;
40022;SDS011;25713;-35.352;149.036;2022-08-21T13:25:26;2.90;;;0.40;;
40022;SDS011;25713;-35.352;149.036;2022-08-21T13:27:58;0.85;;;0.40;;
40022;SDS011;25713;-35.352;149.036;2022-08-21T13:30:29;0.80;;;0.50;;
40022;SDS011;25713;-35.352;149.036;2022-08-21T13:33:00;0.70;;;0.40;;
40022;SDS011;25713;-35.352;149.036;2022-08-21T13:35:34;0.55;;;0.40;;
40022;SDS011;25713;-35.352;149.036;2022-08-21T13:38:15;1.10;;;0.45;;
40022;SDS011;25713;-35.352;149.036;2022-08-21T13:40:48;1.08;;;0.50;;
40022;SDS011;25713;-35.352;149.036;2022-08-21T13:43:19;1.17;;;0.50;;
40022;SDS011;25713;-35.352;149.036;2022-08-21T13:45:53;3.10;;;0.95;;
40022;SDS011;25713;-35.352;149.036;2022-08-21T13:48:25;1.73;;;0.50;;
40022;SDS011;25713;-35.352;149.036;2022-08-21T13:50:56;0.70;;;0.30;;
40022;SDS011;25713;-35.352;149.036;2022-08-21T13:53:30;1.30;;;0.30;;
40022;SDS011;25713;-35.352;149.036;2022-08-21T13:56:03;1.05;;;0.60;;
40022;SDS011;25713;-35.352;149.036;2022-08-21T13:58:45;0.95;;;0.28;;
40022;SDS011;25713;-35.352;149.036;2022-08-21T14:01:19;0.68;;;0.30;;
40022;SDS011;25713;-35.352;149.036;2022-08-21T14:03:54;0.70;;;0.30;;
40022;SDS011;25713;-35.352;149.036;2022-08-21T14:06:27;0.88;;;0.30;;
40022;SDS011;25713;-35.352;149.036;2022-08-21T14:09:07;0.30;;;0.20;;
40022;SDS011;25713;-35.352;149.036;2022-08-21T14:11:38;1.10;;;0.30;;
40022;SDS011;25713;-35.352;149.036;2022-08-21T14:14:14;0.35;;;0.30;;
40022;SDS011;25713;-35.352;149.036;2022-08-21T14:16:52;0.43;;;0.20;;
40022;SDS011;25713;-35.352;149.036;2022-08-21T14:19:24;1.60;;;0.30;;
40022;SDS011;25713;-35.352;149.036;2022-08-21T14:21:55;1.10;;;0.40;;
40022;SDS011;25713;-35.352;149.036;2022-08-21T14:24:28;1.58;;;0.43;;
40022;SDS011;25713;-35.352;149.036;2022-08-21T14:27:03;0.93;;;0.30;;
40022;SDS011;25713;-35.352;149.036;2022-08-21T14:29:35;0.70;;;0.25;;
40022;SDS011;25713;-35.352;149.036;2022-08-21T14:32:13;0.50;;;0.30;;
40022;SDS011;25713;-35.352;149.036;2022-08-21T14:34:44;0.68;;;0.40;;
40022;SDS011;25713;-35.352;149.036;2022-08-21T14:37:14;0.88;;;0.30;;
40022;SDS011;25713;-35.352;149.036;2022-08-21T14:39:45;0.60;;;0.40;;
40022;SDS011;25713;-35.352;149.036;2022-08-21T14:42:16;1.50;;;0.50;;
40022;SDS011;25713;-35.352;149.036;2022-08-21T14:44:49;0.40;;;0.30;;
40022;SDS011;25713;-35.352;149.036;2022-08-21T14:47:19;0.40;;;0.30;;
40022;SDS011;25713;-35.352;149.036;2022-08-21T14:49:49;0.98;;;0.28;;
40022;SDS011;25713;-35.352;149.036;2022-08-21T14:52:19;0.50;;;0.30;;
40022;SDS011;25713;-35.352;149.036;2022-08-21T15:55:15;0.45;;;0.30;;
40022;SDS011;25713;-35.352;149.036;2022-08-21T15:57:46;1.05;;;0.30;;